sensor_id;sensor_type;location;lat;lon;timestamp;P1;durP1;ratioP1;P2;durP2;ratioP2
9940;SDS011;5009;50.656;7.188;2023-10-31T05:01:57;1.80;;;1.30;;
9940;SDS011;5009;50.656;7.188;2023-10-31T05:04:23;2.20;;;0.87;;
9940;SDS011;5009;50.656;7.188;2023-10-31T05:06:49;2.00;;;1.30;;
9940;SDS011;5009;50.656;7.188;2023-10-31T05:09:14;1.20;;;1.10;;
9940;SDS011;5009;50.656;7.188;2023-10-31T05:11:40;3.30;;;0.97;;
9940;SDS011;5009;50.656;7.188;2023-10-31T05:14:07;2.53;;;1.23;;
9940;SDS011;5009;50.656;7.188;2023-10-31T05:16:39;1.83;;;1.13;;
9940;SDS011;5009;50.656;7.188;2023-10-31T05:19:07;1.30;;;1.20;;
9940;SDS011;5009;50.656;7.188;2023-10-31T05:21:33;1.10;;;1.03;;
9940;SDS011;5009;50.656;7.188;2023-10-31T05:23:59;3.77;;;1.37;;
9940;SDS011;5009;50.656;7.188;2023-10-31T05:26:24;1.07;;;1.00;;
9940;SDS011;5009;50.656;7.188;2023-10-31T05:28:50;1.47;;;1.37;;
9940;SDS011;5009;50.656;7.188;2023-10-31T05:31:15;3.40;;;1.30;;
9940;SDS011;5009;50.656;7.188;2023-10-31T05:33:42;1.00;;;1.00;;
9940;SDS011;5009;50.656;7.188;2023-10-31T05:36:17;1.50;;;1.40;;
9940;SDS011;5009;50.656;7.188;2023-10-31T05:38:47;2.90;;;1.00;;
9940;SDS011;5009;50.656;7.188;2023-10-31T05:41:13;2.90;;;1.47;;
9940;SDS011;5009;50.656;7.188;2023-10-31T05:43:39;2.10;;;1.37;;
9940;SDS011;5009;50.656;7.188;2023-10-31T05:46:05;1.50;;;1.00;;
9940;SDS011;5009;50.656;7.188;2023-10-31T05:48:31;1.03;;;1.03;;
9940;SDS011;5009;50.656;7.188;2023-10-31T05:50:57;2.10;;;1.10;;
9940;SDS011;5009;50.656;7.188;2023-10-31T05:53:22;1.07;;;0.97;;
9940;SDS011;5009;50.656;7.188;2023-10-31T05:55:48;3.37;;;1.30;;
9940;SDS011;5009;50.656;7.188;2023-10-31T05:58:14;1.33;;;1.20;;
9940;SDS011;5009;50.656;7.188;2023-10-31T06:00:39;2.70;;;1.40;;
9940;SDS011;5009;50.656;7.188;2023-10-31T06:03:05;2.07;;;1.30;;
9940;SDS011;5009;50.656;7.188;2023-10-31T06:05:31;2.50;;;0.97;;
9940;SDS011;5009;50.656;7.188;2023-10-31T06:07:56;1.30;;;1.20;;
9940;SDS011;5009;50.656;7.188;2023-10-31T06:10:22;3.30;;;1.40;;
9940;SDS011;5009;50.656;7.188;2023-10-31T06:12:47;3.47;;;1.30;;
9940;SDS011;5009;50.656;7.188;2023-10-31T06:15:13;1.13;;;1.07;;
9940;SDS011;5009;50.656;7.188;2023-10-31T06:17:39;1.53;;;1.47;;
9940;SDS011;5009;50.656;7.188;2023-10-31T06:20:06;1.50;;;1.40;;
9940;SDS011;5009;50.656;7.188;2023-10-31T06:22:32;1.60;;;1.50;;
9940;SDS011;5009;50.656;7.188;2023-10-31T06:24:58;1.60;;;1.50;;
9940;SDS011;5009;50.656;7.188;2023-10-31T06:27:25;1.90;;;1.50;;
9940;SDS011;5009;50.656;7.188;2023-10-31T06:29:50;2.50;;;1.80;;
9940;SDS011;5009;50.656;7.188;2023-10-31T06:32:16;3.17;;;2.20;;
9940;SDS011;5009;50.656;7.188;2023-10-31T06:34:41;4.50;;;1.73;;
9940;SDS011;5009;50.656;7.188;2023-10-31T06:37:07;5.53;;;1.80;;
9940;SDS011;5009;50.656;7.188;2023-10-31T06:39:32;1.53;;;1.43;;
9940;SDS011;5009;50.656;7.188;2023-10-31T06:41:58;1.93;;;1.30;;
9940;SDS011;5009;50.656;7.188;2023-10-31T06:44:23;2.63;;;1.50;;
9940;SDS011;5009;50.656;7.188;2023-10-31T06:46:49;2.60;;;1.60;;
9940;SDS011;5009;50.656;7.188;2023-10-31T06:49:15;3.50;;;1.73;;
9940;SDS011;5009;50.656;7.188;2023-10-31T06:51:40;2.80;;;1.10;;
9940;SDS011;5009;50.656;7.188;2023-10-31T06:54:06;1.40;;;1.30;;
9940;SDS011;5009;50.656;7.188;2023-10-31T06:56:32;2.20;;;1.43;;
9940;SDS011;5009;50.656;7.188;2023-10-31T06:58:57;2.73;;;1.50;;
9940;SDS011;5009;50.656;7.188;2023-10-31T07:01:23;1.97;;;1.40;;
9940;SDS011;5009;50.656;7.188;2023-10-31T07:03:49;2.63;;;1.60;;
9940;SDS011;5009;50.656;7.188;2023-10-31T07:06:15;1.73;;;1.47;;
9940;SDS011;5009;50.656;7.188;2023-10-31T07:08:40;1.53;;;1.30;;
9940;SDS011;5009;50.656;7.188;2023-10-31T07:11:06;1.33;;;1.13;;
9940;SDS011;5009;50.656;7.188;2023-10-31T07:13:31;0.93;;;0.93;;
9940;SDS011;5009;50.656;7.188;2023-10-31T07:15:57;3.80;;;1.50;;
9940;SDS011;5009;50.656;7.188;2023-10-31T07:18:23;1.70;;;1.50;;
9940;SDS011;5009;50.656;7.188;2023-10-31T07:20:48;2.50;;;1.03;;
9940;SDS011;5009;50.656;7.188;2023-10-31T07:23:14;1.17;;;1.03;;
9940;SDS011;5009;50.656;7.188;2023-10-31T07:25:39;2.33;;;0.90;;
9940;SDS011;5009;50.656;7.188;2023-10-31T07:28:05;1.40;;;1.30;;
9940;SDS011;5009;50.656;7.188;2023-10-31T07:30:30;1.60;;;1.50;;
9940;SDS011;5009;50.656;7.188;2023-10-31T07:32:56;1.20;;;1.10;;
9940;SDS011;5009;50.656;7.188;2023-10-31T07:35:22;2.87;;;1.27;;
9940;SDS011;5009;50.656;7.188;2023-10-31T07:37:47;2.10;;;1.10;;
9940;SDS011;5009;50.656;7.188;2023-10-31T07:40:13;1.90;;;1.67;;
9940;SDS011;5009;50.656;7.188;2023-10-31T07:42:39;3.00;;;1.30;;
9940;SDS011;5009;50.656;7.188;2023-10-31T07:45:05;1.43;;;1.27;;
9940;SDS011;5009;50.656;7.188;2023-10-31T07:47:31;1.40;;;1.00;;
9940;SDS011;5009;50.656;7.188;2023-10-31T07:49:56;1.83;;;1.73;;
9940;SDS011;5009;50.656;7.188;2023-10-31T07:52:22;2.00;;;1.17;;
9940;SDS011;5009;50.656;7.188;2023-10-31T07:54:47;1.70;;;1.17;;
9940;SDS011;5009;50.656;7.188;2023-10-31T07:57:13;2.20;;;1.40;;
9940;SDS011;5009;50.656;7.188;2023-10-31T07:59:38;3.77;;;1.40;;
9940;SDS011;5009;50.656;7.188;2023-10-31T08:02:04;3.63;;;1.90;;
9940;SDS011;5009;50.656;7.188;2023-10-31T08:04:30;3.97;;;1.80;;
9940;SDS011;5009;50.656;7.188;2023-10-31T08:06:56;2.10;;;1.77;;
9940;SDS011;5009;50.656;7.188;2023-10-31T08:09:22;5.13;;;2.40;;
9940;SDS011;5009;50.656;7.188;2023-10-31T08:11:47;2.90;;;2.00;;
9940;SDS011;5009;50.656;7.188;2023-10-31T08:14:13;3.00;;;2.50;;
9940;SDS011;5009;50.656;7.188;2023-10-31T08:16:40;3.57;;;2.27;;
9940;SDS011;5009;50.656;7.188;2023-10-31T08:19:06;3.53;;;2.20;;
9940;SDS011;5009;50.656;7.188;2023-10-31T08:21:32;2.83;;;1.70;;
9940;SDS011;5009;50.656;7.188;2023-10-31T08:24:03;3.60;;;2.13;;
9940;SDS011;5009;50.656;7.188;2023-10-31T08:26:30;2.37;;;2.17;;
9940;SDS011;5009;50.656;7.188;2023-10-31T08:28:59;4.27;;;2.13;;
9940;SDS011;5009;50.656;7.188;2023-10-31T08:31:24;2.63;;;1.90;;
9940;SDS011;5009;50.656;7.188;2023-10-31T08:33:50;3.63;;;1.50;;
9940;SDS011;5009;50.656;7.188;2023-10-31T08:36:16;2.47;;;1.30;;
9940;SDS011;5009;50.656;7.188;2023-10-31T08:38:42;2.30;;;1.43;;
9940;SDS011;5009;50.656;7.188;2023-10-31T08:41:07;1.60;;;1.40;;
9940;SDS011;5009;50.656;7.188;2023-10-31T08:43:33;1.70;;;1.60;;
9940;SDS011;5009;50.656;7.188;2023-10-31T08:45:59;1.40;;;1.30;;
9940;SDS011;5009;50.656;7.188;2023-10-31T08:48:24;1.77;;;1.40;;
9940;SDS011;5009;50.656;7.188;2023-10-31T08:50:51;1.20;;;1.10;;
9940;SDS011;5009;50.656;7.188;2023-10-31T08:53:17;1.60;;;1.00;;
9940;SDS011;5009;50.656;7.188;2023-10-31T08:55:45;1.30;;;1.20;;
9940;SDS011;5009;50.656;7.188;2023-10-31T08:58:11;1.10;;;1.10;;
9940;SDS011;5009;50.656;7.188;2023-10-31T09:00:38;1.07;;;1.07;;
9940;SDS011;5009;50.656;7.188;2023-10-31T09:03:03;0.90;;;0.90;;
9940;SDS011;5009;50.656;7.188;2023-10-31T09:05:29;1.23;;;1.10;;
9940;SDS011;5009;50.656;7.188;2023-10-31T09:07:55;1.33;;;1.07;;
9940;SDS011;5009;50.656;7.188;2023-10-31T09:10:20;0.83;;;0.83;;
9940;SDS011;5009;50.656;7.188;2023-10-31T09:12:46;1.43;;;1.33;;
9940;SDS011;5009;50.656;7.188;2023-10-31T09:15:11;2.40;;;1.40;;
9940;SDS011;5009;50.656;7.188;2023-10-31T09:17:38;1.47;;;1.20;;
9940;SDS011;5009;50.656;7.188;2023-10-31T09:20:03;1.60;;;1.20;;
9940;SDS011;5009;50.656;7.188;2023-10-31T09:22:30;1.30;;;1.20;;
9940;SDS011;5009;50.656;7.188;2023-10-31T09:24:55;1.30;;;1.30;;
9940;SDS011;5009;50.656;7.188;2023-10-31T09:27:21;0.90;;;0.90;;
9940;SDS011;5009;50.656;7.188;2023-10-31T09:29:46;1.47;;;1.10;;
9940;SDS011;5009;50.656;7.188;2023-10-31T09:32:13;2.80;;;1.10;;
9940;SDS011;5009;50.656;7.188;2023-10-31T09:34:39;1.60;;;1.50;;
9940;SDS011;5009;50.656;7.188;2023-10-31T09:37:05;1.03;;;1.03;;
9940;SDS011;5009;50.656;7.188;2023-10-31T09:39:30;0.90;;;0.90;;
9940;SDS011;5009;50.656;7.188;2023-10-31T09:41:56;0.90;;;0.83;;
9940;SDS011;5009;50.656;7.188;2023-10-31T09:44:22;1.47;;;0.97;;
9940;SDS011;5009;50.656;7.188;2023-10-31T09:46:48;1.93;;;0.70;;
9940;SDS011;5009;50.656;7.188;2023-10-31T09:49:16;1.10;;;1.10;;
9940;SDS011;5009;50.656;7.188;2023-10-31T09:51:42;1.30;;;1.20;;
9940;SDS011;5009;50.656;7.188;2023-10-31T09:54:08;2.93;;;1.20;;
9940;SDS011;5009;50.656;7.188;2023-10-31T09:56:35;2.27;;;0.87;;
9940;SDS011;5009;50.656;7.188;2023-10-31T09:59:01;1.70;;;1.07;;
9940;SDS011;5009;50.656;7.188;2023-10-31T10:01:30;1.00;;;0.90;;
9940;SDS011;5009;50.656;7.188;2023-10-31T10:03:56;0.80;;;0.80;;
9940;SDS011;5009;50.656;7.188;2023-10-31T10:06:21;0.97;;;0.97;;
9940;SDS011;5009;50.656;7.188;2023-10-31T10:08:48;1.13;;;0.90;;
9940;SDS011;5009;50.656;7.188;2023-10-31T10:11:14;0.97;;;0.97;;
9940;SDS011;5009;50.656;7.188;2023-10-31T10:13:40;1.80;;;1.00;;
9940;SDS011;5009;50.656;7.188;2023-10-31T10:16:06;2.37;;;0.90;;
9940;SDS011;5009;50.656;7.188;2023-10-31T10:18:32;1.23;;;1.10;;
9940;SDS011;5009;50.656;7.188;2023-10-31T10:21:01;1.33;;;0.90;;
9940;SDS011;5009;50.656;7.188;2023-10-31T10:23:28;2.23;;;1.00;;
9940;SDS011;5009;50.656;7.188;2023-10-31T10:25:55;1.20;;;0.83;;
9940;SDS011;5009;50.656;7.188;2023-10-31T10:28:21;0.90;;;0.90;;
9940;SDS011;5009;50.656;7.188;2023-10-31T10:30:49;1.08;;;0.90;;
9940;SDS011;5009;50.656;7.188;2023-10-31T10:33:17;1.48;;;0.63;;
9940;SDS011;5009;50.656;7.188;2023-10-31T10:35:43;1.20;;;0.93;;
9940;SDS011;5009;50.656;7.188;2023-10-31T10:40:40;1.17;;;1.08;;
9940;SDS011;5009;50.656;7.188;2023-10-31T10:43:13;0.98;;;0.98;;
9940;SDS011;5009;50.656;7.188;2023-10-31T10:45:58;1.60;;;0.90;;
9940;SDS011;5009;50.656;7.188;2023-10-31T10:48:25;2.17;;;1.20;;
9940;SDS011;5009;50.656;7.188;2023-10-31T10:50:55;1.25;;;1.25;;
9940;SDS011;5009;50.656;7.188;2023-10-31T10:53:25;1.52;;;1.23;;
9940;SDS011;5009;50.656;7.188;2023-10-31T10:55:56;2.15;;;1.25;;
9940;SDS011;5009;50.656;7.188;2023-10-31T10:58:44;1.60;;;0.80;;
9940;SDS011;5009;50.656;7.188;2023-10-31T11:01:22;1.02;;;0.90;;
9940;SDS011;5009;50.656;7.188;2023-10-31T11:03:49;2.40;;;1.33;;
9940;SDS011;5009;50.656;7.188;2023-10-31T11:06:16;1.95;;;1.25;;
9940;SDS011;5009;50.656;7.188;2023-10-31T11:08:43;1.13;;;1.00;;
9940;SDS011;5009;50.656;7.188;2023-10-31T11:11:10;1.30;;;1.20;;
9940;SDS011;5009;50.656;7.188;2023-10-31T11:13:36;4.65;;;1.45;;
9940;SDS011;5009;50.656;7.188;2023-10-31T11:16:04;1.27;;;0.85;;
9940;SDS011;5009;50.656;7.188;2023-10-31T11:18:36;2.17;;;1.40;;
9940;SDS011;5009;50.656;7.188;2023-10-31T11:21:02;3.33;;;1.30;;
9940;SDS011;5009;50.656;7.188;2023-10-31T11:23:28;3.40;;;1.45;;
9940;SDS011;5009;50.656;7.188;2023-10-31T11:25:54;1.20;;;1.10;;
9940;SDS011;5009;50.656;7.188;2023-10-31T11:28:20;1.45;;;1.10;;
9940;SDS011;5009;50.656;7.188;2023-10-31T11:30:49;1.40;;;1.30;;
9940;SDS011;5009;50.656;7.188;2023-10-31T11:33:16;2.05;;;1.42;;
9940;SDS011;5009;50.656;7.188;2023-10-31T11:35:44;1.85;;;1.23;;
9940;SDS011;5009;50.656;7.188;2023-10-31T11:38:15;2.47;;;1.38;;
9940;SDS011;5009;50.656;7.188;2023-10-31T11:43:09;1.60;;;1.30;;
9940;SDS011;5009;50.656;7.188;2023-10-31T11:45:37;1.80;;;1.40;;
9940;SDS011;5009;50.656;7.188;2023-10-31T11:48:13;3.83;;;1.60;;
9940;SDS011;5009;50.656;7.188;2023-10-31T11:50:39;3.28;;;1.52;;
9940;SDS011;5009;50.656;7.188;2023-10-31T11:53:12;1.42;;;1.33;;
9940;SDS011;5009;50.656;7.188;2023-10-31T11:55:40;4.20;;;1.67;;
9940;SDS011;5009;50.656;7.188;2023-10-31T12:01:00;1.75;;;1.35;;
9940;SDS011;5009;50.656;7.188;2023-10-31T12:03:28;3.95;;;1.58;;
9940;SDS011;5009;50.656;7.188;2023-10-31T12:06:13;2.15;;;1.52;;
9940;SDS011;5009;50.656;7.188;2023-10-31T12:08:40;2.40;;;1.45;;
9940;SDS011;5009;50.656;7.188;2023-10-31T12:11:10;2.97;;;1.67;;
9940;SDS011;5009;50.656;7.188;2023-10-31T12:13:42;2.22;;;1.45;;
9940;SDS011;5009;50.656;7.188;2023-10-31T12:16:25;2.80;;;1.65;;
9940;SDS011;5009;50.656;7.188;2023-10-31T12:18:56;5.53;;;2.85;;
9940;SDS011;5009;50.656;7.188;2023-10-31T12:24:21;2.92;;;1.65;;
9940;SDS011;5009;50.656;7.188;2023-10-31T12:26:47;5.68;;;2.13;;
9940;SDS011;5009;50.656;7.188;2023-10-31T12:29:15;1.92;;;1.40;;
9940;SDS011;5009;50.656;7.188;2023-10-31T12:34:14;2.83;;;1.73;;
9940;SDS011;5009;50.656;7.188;2023-10-31T12:36:42;3.25;;;1.88;;
9940;SDS011;5009;50.656;7.188;2023-10-31T12:39:09;3.03;;;1.92;;
9940;SDS011;5009;50.656;7.188;2023-10-31T12:41:37;2.05;;;1.83;;
9940;SDS011;5009;50.656;7.188;2023-10-31T12:44:04;6.00;;;1.95;;
9940;SDS011;5009;50.656;7.188;2023-10-31T12:46:31;1.93;;;1.30;;
9940;SDS011;5009;50.656;7.188;2023-10-31T12:48:57;4.20;;;1.50;;
9940;SDS011;5009;50.656;7.188;2023-10-31T12:51:23;4.82;;;1.98;;
9940;SDS011;5009;50.656;7.188;2023-10-31T12:53:50;4.78;;;2.58;;
9940;SDS011;5009;50.656;7.188;2023-10-31T12:56:34;2.90;;;2.13;;
9940;SDS011;5009;50.656;7.188;2023-10-31T12:59:04;3.08;;;1.70;;
9940;SDS011;5009;50.656;7.188;2023-10-31T13:01:36;5.32;;;1.60;;
9940;SDS011;5009;50.656;7.188;2023-10-31T13:04:08;3.35;;;1.63;;
9940;SDS011;5009;50.656;7.188;2023-10-31T13:06:34;2.20;;;1.48;;
9940;SDS011;5009;50.656;7.188;2023-10-31T13:09:00;1.80;;;1.70;;
9940;SDS011;5009;50.656;7.188;2023-10-31T13:11:30;2.20;;;1.60;;
9940;SDS011;5009;50.656;7.188;2023-10-31T13:13:56;5.63;;;1.60;;
9940;SDS011;5009;50.656;7.188;2023-10-31T13:16:21;2.17;;;1.50;;
9940;SDS011;5009;50.656;7.188;2023-10-31T13:18:47;2.63;;;1.65;;
9940;SDS011;5009;50.656;7.188;2023-10-31T13:21:14;2.50;;;1.52;;
9940;SDS011;5009;50.656;7.188;2023-10-31T13:23:41;2.03;;;1.45;;
9940;SDS011;5009;50.656;7.188;2023-10-31T13:26:10;1.95;;;1.40;;
9940;SDS011;5009;50.656;7.188;2023-10-31T13:28:36;2.08;;;1.50;;
9940;SDS011;5009;50.656;7.188;2023-10-31T13:31:04;3.38;;;1.45;;
9940;SDS011;5009;50.656;7.188;2023-10-31T13:33:31;4.78;;;1.67;;
9940;SDS011;5009;50.656;7.188;2023-10-31T13:35:56;2.70;;;1.58;;
9940;SDS011;5009;50.656;7.188;2023-10-31T13:38:22;3.05;;;1.90;;
9940;SDS011;5009;50.656;7.188;2023-10-31T13:40:47;4.15;;;1.90;;
9940;SDS011;5009;50.656;7.188;2023-10-31T13:43:13;3.08;;;1.83;;
9940;SDS011;5009;50.656;7.188;2023-10-31T13:45:38;4.43;;;1.83;;
9940;SDS011;5009;50.656;7.188;2023-10-31T13:48:04;4.03;;;1.83;;
9940;SDS011;5009;50.656;7.188;2023-10-31T13:50:30;4.87;;;1.97;;
9940;SDS011;5009;50.656;7.188;2023-10-31T13:52:55;1.97;;;1.43;;
9940;SDS011;5009;50.656;7.188;2023-10-31T13:55:21;1.83;;;1.35;;
9940;SDS011;5009;50.656;7.188;2023-10-31T13:57:48;3.43;;;1.77;;
9940;SDS011;5009;50.656;7.188;2023-10-31T14:00:14;2.35;;;1.58;;
9940;SDS011;5009;50.656;7.188;2023-10-31T14:02:40;1.85;;;1.40;;
9940;SDS011;5009;50.656;7.188;2023-10-31T14:05:06;2.93;;;1.80;;
9940;SDS011;5009;50.656;7.188;2023-10-31T14:07:32;4.30;;;1.70;;
9940;SDS011;5009;50.656;7.188;2023-10-31T14:09:57;3.20;;;1.73;;
9940;SDS011;5009;50.656;7.188;2023-10-31T14:12:23;3.08;;;1.73;;
9940;SDS011;5009;50.656;7.188;2023-10-31T14:14:50;3.65;;;1.92;;
9940;SDS011;5009;50.656;7.188;2023-10-31T14:17:16;2.30;;;1.40;;
9940;SDS011;5009;50.656;7.188;2023-10-31T14:19:43;3.50;;;1.80;;
9940;SDS011;5009;50.656;7.188;2023-10-31T14:22:09;2.37;;;1.80;;
9940;SDS011;5009;50.656;7.188;2023-10-31T14:24:36;2.97;;;1.90;;
9940;SDS011;5009;50.656;7.188;2023-10-31T14:27:02;4.00;;;2.00;;
9940;SDS011;5009;50.656;7.188;2023-10-31T14:29:28;2.75;;;1.58;;
9940;SDS011;5009;50.656;7.188;2023-10-31T14:31:53;2.40;;;1.73;;
9940;SDS011;5009;50.656;7.188;2023-10-31T14:34:19;2.63;;;1.77;;
9940;SDS011;5009;50.656;7.188;2023-10-31T14:36:46;3.07;;;1.70;;
9940;SDS011;5009;50.656;7.188;2023-10-31T14:39:11;4.07;;;1.63;;
9940;SDS011;5009;50.656;7.188;2023-10-31T14:41:37;2.60;;;1.70;;
9940;SDS011;5009;50.656;7.188;2023-10-31T14:44:03;2.50;;;1.90;;
9940;SDS011;5009;50.656;7.188;2023-10-31T14:46:29;2.10;;;1.60;;
9940;SDS011;5009;50.656;7.188;2023-10-31T14:48:57;1.90;;;1.40;;
9940;SDS011;5009;50.656;7.188;2023-10-31T14:51:22;3.60;;;1.90;;
9940;SDS011;5009;50.656;7.188;2023-10-31T14:53:48;3.63;;;1.70;;
9940;SDS011;5009;50.656;7.188;2023-10-31T14:56:14;1.37;;;1.20;;
9940;SDS011;5009;50.656;7.188;2023-10-31T14:58:41;1.33;;;1.20;;
9940;SDS011;5009;50.656;7.188;2023-10-31T15:01:06;2.60;;;1.40;;
9940;SDS011;5009;50.656;7.188;2023-10-31T15:03:32;2.70;;;1.40;;
9940;SDS011;5009;50.656;7.188;2023-10-31T15:05:58;3.63;;;1.40;;
9940;SDS011;5009;50.656;7.188;2023-10-31T15:08:24;1.30;;;1.20;;
9940;SDS011;5009;50.656;7.188;2023-10-31T15:10:50;5.30;;;1.97;;
9940;SDS011;5009;50.656;7.188;2023-10-31T15:13:17;3.83;;;1.90;;
9940;SDS011;5009;50.656;7.188;2023-10-31T15:15:43;2.83;;;1.37;;
9940;SDS011;5009;50.656;7.188;2023-10-31T15:18:08;1.83;;;1.60;;
9940;SDS011;5009;50.656;7.188;2023-10-31T15:20:34;3.63;;;1.67;;
9940;SDS011;5009;50.656;7.188;2023-10-31T15:23:00;3.33;;;1.53;;
9940;SDS011;5009;50.656;7.188;2023-10-31T15:25:25;2.80;;;1.80;;
9940;SDS011;5009;50.656;7.188;2023-10-31T15:27:51;2.53;;;1.77;;
9940;SDS011;5009;50.656;7.188;2023-10-31T15:30:16;2.80;;;2.00;;
9940;SDS011;5009;50.656;7.188;2023-10-31T15:32:42;2.70;;;1.53;;
9940;SDS011;5009;50.656;7.188;2023-10-31T15:35:08;2.43;;;1.50;;
9940;SDS011;5009;50.656;7.188;2023-10-31T15:37:34;1.30;;;1.20;;
9940;SDS011;5009;50.656;7.188;2023-10-31T15:40:00;2.77;;;1.40;;
9940;SDS011;5009;50.656;7.188;2023-10-31T15:42:26;2.77;;;1.37;;
9940;SDS011;5009;50.656;7.188;2023-10-31T15:44:53;2.33;;;1.40;;
9940;SDS011;5009;50.656;7.188;2023-10-31T15:47:21;1.67;;;1.53;;
9940;SDS011;5009;50.656;7.188;2023-10-31T15:49:46;2.10;;;1.43;;
9940;SDS011;5009;50.656;7.188;2023-10-31T15:52:12;3.47;;;1.10;;
9940;SDS011;5009;50.656;7.188;2023-10-31T15:54:37;1.87;;;1.30;;
9940;SDS011;5009;50.656;7.188;2023-10-31T15:57:03;1.43;;;1.03;;
9940;SDS011;5009;50.656;7.188;2023-10-31T15:59:29;2.43;;;1.30;;
9940;SDS011;5009;50.656;7.188;2023-10-31T16:01:56;1.63;;;1.47;;
9940;SDS011;5009;50.656;7.188;2023-10-31T16:04:21;2.30;;;1.40;;
9940;SDS011;5009;50.656;7.188;2023-10-31T16:06:48;2.57;;;1.70;;
9940;SDS011;5009;50.656;7.188;2023-10-31T16:09:14;2.67;;;2.47;;
9940;SDS011;5009;50.656;7.188;2023-10-31T16:11:40;2.47;;;2.00;;
9940;SDS011;5009;50.656;7.188;2023-10-31T16:14:06;2.63;;;1.90;;
9940;SDS011;5009;50.656;7.188;2023-10-31T16:16:32;1.97;;;1.40;;
9940;SDS011;5009;50.656;7.188;2023-10-31T16:18:57;2.33;;;2.00;;
9940;SDS011;5009;50.656;7.188;2023-10-31T16:21:23;4.43;;;1.80;;
9940;SDS011;5009;50.656;7.188;2023-10-31T16:23:49;2.30;;;1.53;;
9940;SDS011;5009;50.656;7.188;2023-10-31T16:26:15;2.17;;;1.77;;
9940;SDS011;5009;50.656;7.188;2023-10-31T16:28:42;2.63;;;1.77;;
9940;SDS011;5009;50.656;7.188;2023-10-31T16:31:11;3.67;;;1.70;;
9940;SDS011;5009;50.656;7.188;2023-10-31T16:33:41;2.90;;;1.80;;
9940;SDS011;5009;50.656;7.188;2023-10-31T16:36:07;2.20;;;2.00;;
9940;SDS011;5009;50.656;7.188;2023-10-31T16:38:33;2.03;;;1.90;;
9940;SDS011;5009;50.656;7.188;2023-10-31T16:41:02;2.60;;;2.40;;
9940;SDS011;5009;50.656;7.188;2023-10-31T16:43:28;2.40;;;2.10;;
9940;SDS011;5009;50.656;7.188;2023-10-31T16:45:55;5.13;;;2.50;;
9940;SDS011;5009;50.656;7.188;2023-10-31T16:48:21;5.17;;;2.80;;
9940;SDS011;5009;50.656;7.188;2023-10-31T16:50:46;5.23;;;2.80;;
9940;SDS011;5009;50.656;7.188;2023-10-31T16:53:13;3.07;;;2.73;;
9940;SDS011;5009;50.656;7.188;2023-10-31T16:55:39;3.10;;;2.80;;
9940;SDS011;5009;50.656;7.188;2023-10-31T16:58:05;3.87;;;2.73;;
9940;SDS011;5009;50.656;7.188;2023-10-31T17:00:38;3.67;;;2.60;;
9940;SDS011;5009;50.656;7.188;2023-10-31T17:03:05;5.57;;;4.13;;
9940;SDS011;5009;50.656;7.188;2023-10-31T17:05:37;4.70;;;3.43;;
9940;SDS011;5009;50.656;7.188;2023-10-31T17:08:05;3.30;;;2.87;;
9940;SDS011;5009;50.656;7.188;2023-10-31T17:10:31;3.10;;;2.63;;
9940;SDS011;5009;50.656;7.188;2023-10-31T17:12:56;3.30;;;2.30;;
9940;SDS011;5009;50.656;7.188;2023-10-31T17:15:23;3.40;;;2.33;;
9940;SDS011;5009;50.656;7.188;2023-10-31T17:17:48;4.47;;;2.30;;
9940;SDS011;5009;50.656;7.188;2023-10-31T17:20:14;3.00;;;2.20;;
9940;SDS011;5009;50.656;7.188;2023-10-31T17:22:39;2.30;;;2.10;;
9940;SDS011;5009;50.656;7.188;2023-10-31T17:25:05;3.93;;;2.23;;
9940;SDS011;5009;50.656;7.188;2023-10-31T17:27:31;3.57;;;2.20;;
9940;SDS011;5009;50.656;7.188;2023-10-31T17:29:56;3.43;;;2.13;;
9940;SDS011;5009;50.656;7.188;2023-10-31T17:32:23;2.27;;;2.10;;
9940;SDS011;5009;50.656;7.188;2023-10-31T17:34:48;3.00;;;2.47;;
9940;SDS011;5009;50.656;7.188;2023-10-31T17:37:14;2.80;;;2.40;;
9940;SDS011;5009;50.656;7.188;2023-10-31T17:39:40;4.70;;;2.70;;
9940;SDS011;5009;50.656;7.188;2023-10-31T17:42:05;2.37;;;2.17;;
9940;SDS011;5009;50.656;7.188;2023-10-31T17:44:31;2.40;;;2.20;;
9940;SDS011;5009;50.656;7.188;2023-10-31T17:46:57;2.63;;;2.23;;
9940;SDS011;5009;50.656;7.188;2023-10-31T17:49:23;3.90;;;2.40;;
9940;SDS011;5009;50.656;7.188;2023-10-31T17:51:48;2.37;;;2.10;;
9940;SDS011;5009;50.656;7.188;2023-10-31T17:54:14;3.67;;;2.40;;
9940;SDS011;5009;50.656;7.188;2023-10-31T17:56:41;2.57;;;2.30;;
9940;SDS011;5009;50.656;7.188;2023-10-31T17:59:07;2.30;;;2.10;;
9940;SDS011;5009;50.656;7.188;2023-10-31T18:01:32;2.33;;;2.13;;
9940;SDS011;5009;50.656;7.188;2023-10-31T18:03:58;4.27;;;3.83;;
9940;SDS011;5009;50.656;7.188;2023-10-31T18:06:24;3.90;;;3.50;;
9940;SDS011;5009;50.656;7.188;2023-10-31T18:08:50;4.07;;;2.70;;
9940;SDS011;5009;50.656;7.188;2023-10-31T18:11:16;2.07;;;1.90;;
9940;SDS011;5009;50.656;7.188;2023-10-31T18:13:41;2.20;;;2.00;;
9940;SDS011;5009;50.656;7.188;2023-10-31T18:16:09;5.37;;;2.37;;
9940;SDS011;5009;50.656;7.188;2023-10-31T18:18:36;2.50;;;2.30;;
9940;SDS011;5009;50.656;7.188;2023-10-31T18:21:03;4.43;;;3.43;;
9940;SDS011;5009;50.656;7.188;2023-10-31T18:23:28;3.67;;;3.30;;
9940;SDS011;5009;50.656;7.188;2023-10-31T18:25:57;4.33;;;3.90;;
9940;SDS011;5009;50.656;7.188;2023-10-31T18:28:24;5.73;;;4.77;;
9940;SDS011;5009;50.656;7.188;2023-10-31T18:30:50;5.33;;;4.00;;
9940;SDS011;5009;50.656;7.188;2023-10-31T18:33:16;5.53;;;3.50;;
9940;SDS011;5009;50.656;7.188;2023-10-31T18:35:42;4.57;;;4.13;;
9940;SDS011;5009;50.656;7.188;2023-10-31T18:38:08;6.63;;;5.60;;
9940;SDS011;5009;50.656;7.188;2023-10-31T18:40:34;8.40;;;6.73;;
9940;SDS011;5009;50.656;7.188;2023-10-31T18:43:00;10.40;;;8.00;;
9940;SDS011;5009;50.656;7.188;2023-10-31T18:45:26;8.70;;;6.97;;
9940;SDS011;5009;50.656;7.188;2023-10-31T18:47:51;7.53;;;6.80;;
9940;SDS011;5009;50.656;7.188;2023-10-31T18:50:17;7.00;;;6.30;;
9940;SDS011;5009;50.656;7.188;2023-10-31T18:52:43;5.90;;;5.33;;
9940;SDS011;5009;50.656;7.188;2023-10-31T18:55:08;5.63;;;4.80;;
9940;SDS011;5009;50.656;7.188;2023-10-31T18:57:34;5.50;;;4.37;;
9940;SDS011;5009;50.656;7.188;2023-10-31T18:59:59;4.93;;;4.13;;
9940;SDS011;5009;50.656;7.188;2023-10-31T19:02:30;5.50;;;4.00;;
9940;SDS011;5009;50.656;7.188;2023-10-31T19:04:56;5.57;;;4.80;;
9940;SDS011;5009;50.656;7.188;2023-10-31T19:07:21;7.63;;;4.93;;
9940;SDS011;5009;50.656;7.188;2023-10-31T19:09:47;6.80;;;5.30;;
9940;SDS011;5009;50.656;7.188;2023-10-31T19:12:12;7.10;;;4.57;;
9940;SDS011;5009;50.656;7.188;2023-10-31T19:14:38;5.10;;;4.17;;
9940;SDS011;5009;50.656;7.188;2023-10-31T19:17:03;4.37;;;3.60;;
9940;SDS011;5009;50.656;7.188;2023-10-31T19:19:29;7.23;;;3.63;;
9940;SDS011;5009;50.656;7.188;2023-10-31T19:21:55;4.73;;;3.07;;
9940;SDS011;5009;50.656;7.188;2023-10-31T19:24:20;7.03;;;4.23;;
9940;SDS011;5009;50.656;7.188;2023-10-31T19:26:46;4.47;;;4.07;;
9940;SDS011;5009;50.656;7.188;2023-10-31T19:29:11;6.63;;;5.30;;
9940;SDS011;5009;50.656;7.188;2023-10-31T19:31:37;5.23;;;4.40;;
9940;SDS011;5009;50.656;7.188;2023-10-31T19:34:03;5.13;;;4.43;;
9940;SDS011;5009;50.656;7.188;2023-10-31T19:36:28;5.50;;;4.00;;
9940;SDS011;5009;50.656;7.188;2023-10-31T19:38:54;5.97;;;5.20;;
9940;SDS011;5009;50.656;7.188;2023-10-31T19:41:21;3.53;;;3.13;;
9940;SDS011;5009;50.656;7.188;2023-10-31T19:43:47;5.13;;;3.53;;
9940;SDS011;5009;50.656;7.188;2023-10-31T19:46:12;5.43;;;4.43;;
9940;SDS011;5009;50.656;7.188;2023-10-31T19:48:38;5.07;;;4.57;;
9940;SDS011;5009;50.656;7.188;2023-10-31T19:51:04;6.03;;;5.23;;
9940;SDS011;5009;50.656;7.188;2023-10-31T19:53:31;5.63;;;4.17;;
9940;SDS011;5009;50.656;7.188;2023-10-31T19:55:57;5.80;;;3.87;;
9940;SDS011;5009;50.656;7.188;2023-10-31T19:58:22;4.87;;;4.13;;
9940;SDS011;5009;50.656;7.188;2023-10-31T20:00:49;4.97;;;4.00;;
9940;SDS011;5009;50.656;7.188;2023-10-31T20:03:15;6.37;;;3.43;;
9940;SDS011;5009;50.656;7.188;2023-10-31T20:05:42;4.97;;;3.40;;
9940;SDS011;5009;50.656;7.188;2023-10-31T20:08:11;6.63;;;4.30;;
9940;SDS011;5009;50.656;7.188;2023-10-31T20:10:36;9.43;;;5.60;;
9940;SDS011;5009;50.656;7.188;2023-10-31T20:13:02;6.77;;;5.17;;
9940;SDS011;5009;50.656;7.188;2023-10-31T20:15:27;8.07;;;5.10;;
9940;SDS011;5009;50.656;7.188;2023-10-31T20:17:53;7.07;;;4.67;;
9940;SDS011;5009;50.656;7.188;2023-10-31T20:20:18;4.87;;;3.57;;
9940;SDS011;5009;50.656;7.188;2023-10-31T20:22:44;4.33;;;2.83;;
9940;SDS011;5009;50.656;7.188;2023-10-31T20:25:10;3.07;;;2.87;;